sensor_id;sensor_type;location;lat;lon;timestamp;temperature;humidity
38902;DHT22;24661;53.566;9.910;2023-03-01T00:02:00;0.40;99.90
38902;DHT22;24661;53.566;9.910;2023-03-01T00:04:26;0.40;99.90
38902;DHT22;24661;53.566;9.910;2023-03-01T00:06:53;0.40;99.90
38902;DHT22;24661;53.566;9.910;2023-03-01T00:09:18;0.50;99.90
38902;DHT22;24661;53.566;9.910;2023-03-01T00:11:44;0.40;99.90
38902;DHT22;24661;53.566;9.910;2023-03-01T00:14:10;0.40;99.90
38902;DHT22;24661;53.566;9.910;2023-03-01T00:16:38;0.40;99.90
38902;DHT22;24661;53.566;9.910;2023-03-01T00:19:05;0.30;99.90
38902;DHT22;24661;53.566;9.910;2023-03-01T00:21:32;0.30;99.90
38902;DHT22;24661;53.566;9.910;2023-03-01T00:23:58;0.40;99.90
38902;DHT22;24661;53.566;9.910;2023-03-01T00:26:25;0.40;99.90
38902;DHT22;24661;53.566;9.910;2023-03-01T00:28:52;0.30;99.90
38902;DHT22;24661;53.566;9.910;2023-03-01T00:31:23;0.20;99.90
38902;DHT22;24661;53.566;9.910;2023-03-01T00:33:52;0.20;99.90
38902;DHT22;24661;53.566;9.910;2023-03-01T00:36:19;0.20;99.90
38902;DHT22;24661;53.566;9.910;2023-03-01T00:38:45;0.30;99.90
38902;DHT22;24661;53.566;9.910;2023-03-01T00:41:16;0.30;99.90
38902;DHT22;24661;53.566;9.910;2023-03-01T00:43:42;0.30;99.90
38902;DHT22;24661;53.566;9.910;2023-03-01T00:46:10;0.30;99.90
38902;DHT22;24661;53.566;9.910;2023-03-01T00:48:37;0.30;99.90
38902;DHT22;24661;53.566;9.910;2023-03-01T00:51:08;0.30;99.90
38902;DHT22;24661;53.566;9.910;2023-03-01T00:53:34;0.30;99.90
38902;DHT22;24661;53.566;9.910;2023-03-01T00:56:01;0.30;99.90
38902;DHT22;24661;53.566;9.910;2023-03-01T00:58:27;0.30;99.90
38902;DHT22;24661;53.566;9.910;2023-03-01T01:00:52;0.30;99.90
38902;DHT22;24661;53.566;9.910;2023-03-01T01:03:18;0.20;99.90
38902;DHT22;24661;53.566;9.910;2023-03-01T01:05:44;0.20;99.90
38902;DHT22;24661;53.566;9.910;2023-03-01T01:08:11;0.20;99.90
38902;DHT22;24661;53.566;9.910;2023-03-01T01:10:37;0.20;99.90
38902;DHT22;24661;53.566;9.910;2023-03-01T01:13:03;0.20;99.90
38902;DHT22;24661;53.566;9.910;2023-03-01T01:15:31;0.30;99.90
38902;DHT22;24661;53.566;9.910;2023-03-01T01:17:58;0.20;99.90
38902;DHT22;24661;53.566;9.910;2023-03-01T01:20:23;0.20;99.90
38902;DHT22;24661;53.566;9.910;2023-03-01T01:22:49;0.20;99.90
38902;DHT22;24661;53.566;9.910;2023-03-01T01:25:16;0.20;99.90
38902;DHT22;24661;53.566;9.910;2023-03-01T01:27:42;0.20;99.90
38902;DHT22;24661;53.566;9.910;2023-03-01T01:30:08;1.20;99.90
38902;DHT22;24661;53.566;9.910;2023-03-01T01:32:33;0.10;99.90
38902;DHT22;24661;53.566;9.910;2023-03-01T01:34:59;0.10;99.90
38902;DHT22;24661;53.566;9.910;2023-03-01T01:37:25;0.10;99.90
38902;DHT22;24661;53.566;9.910;2023-03-01T01:39:58;0.10;99.90
38902;DHT22;24661;53.566;9.910;2023-03-01T01:42:24;-0.90;99.90
38902;DHT22;24661;53.566;9.910;2023-03-01T01:45:24;0.10;99.90
38902;DHT22;24661;53.566;9.910;2023-03-01T01:47:51;0.10;99.90
38902;DHT22;24661;53.566;9.910;2023-03-01T01:50:18;0.10;99.90
38902;DHT22;24661;53.566;9.910;2023-03-01T01:52:45;0.10;99.90
38902;DHT22;24661;53.566;9.910;2023-03-01T01:55:15;0.10;99.90
38902;DHT22;24661;53.566;9.910;2023-03-01T01:57:45;0.10;99.90
38902;DHT22;24661;53.566;9.910;2023-03-01T02:00:17;0.10;99.90
38902;DHT22;24661;53.566;9.910;2023-03-01T02:02:45;0.10;99.90
38902;DHT22;24661;53.566;9.910;2023-03-01T02:05:24;0.10;99.90
38902;DHT22;24661;53.566;9.910;2023-03-01T02:07:51;0.00;99.90
38902;DHT22;24661;53.566;9.910;2023-03-01T02:10:17;0.10;99.90
38902;DHT22;24661;53.566;9.910;2023-03-01T02:12:43;0.10;99.90
38902;DHT22;24661;53.566;9.910;2023-03-01T02:15:09;0.00;99.90
38902;DHT22;24661;53.566;9.910;2023-03-01T02:17:35;0.00;99.90
38902;DHT22;24661;53.566;9.910;2023-03-01T02:23:18;0.10;99.90
38902;DHT22;24661;53.566;9.910;2023-03-01T02:28:32;0.10;99.90
38902;DHT22;24661;53.566;9.910;2023-03-01T02:30:58;0.10;99.90
38902;DHT22;24661;53.566;9.910;2023-03-01T02:33:44;0.10;99.90
38902;DHT22;24661;53.566;9.910;2023-03-01T02:36:15;0.00;99.90
38902;DHT22;24661;53.566;9.910;2023-03-01T02:38:42;0.10;99.90
38902;DHT22;24661;53.566;9.910;2023-03-01T02:41:13;0.10;99.90
38902;DHT22;24661;53.566;9.910;2023-03-01T02:43:40;0.10;99.90
38902;DHT22;24661;53.566;9.910;2023-03-01T02:46:17;0.10;99.90
38902;DHT22;24661;53.566;9.910;2023-03-01T02:48:47;0.10;99.90
38902;DHT22;24661;53.566;9.910;2023-03-01T02:51:34;0.00;99.90
38902;DHT22;24661;53.566;9.910;2023-03-01T02:56:29;0.00;99.90
38902;DHT22;24661;53.566;9.910;2023-03-01T02:58:55;0.10;99.90
38902;DHT22;24661;53.566;9.910;2023-03-01T03:01:27;1.00;99.90
38902;DHT22;24661;53.566;9.910;2023-03-01T03:04:03;0.60;99.90
38902;DHT22;24661;53.566;9.910;2023-03-01T03:06:29;0.00;99.90
38902;DHT22;24661;53.566;9.910;2023-03-01T03:08:55;0.00;99.90
38902;DHT22;24661;53.566;9.910;2023-03-01T03:11:21;0.00;99.90
38902;DHT22;24661;53.566;9.910;2023-03-01T03:13:46;0.10;99.90
38902;DHT22;24661;53.566;9.910;2023-03-01T03:16:14;2.00;99.90
38902;DHT22;24661;53.566;9.910;2023-03-01T03:18:39;0.10;99.90
38902;DHT22;24661;53.566;9.910;2023-03-01T03:21:09;0.00;99.90
38902;DHT22;24661;53.566;9.910;2023-03-01T03:23:36;0.10;99.90
38902;DHT22;24661;53.566;9.910;2023-03-01T03:26:02;0.10;99.90
38902;DHT22;24661;53.566;9.910;2023-03-01T03:28:30;0.10;99.90
38902;DHT22;24661;53.566;9.910;2023-03-01T03:30:56;0.20;99.90
38902;DHT22;24661;53.566;9.910;2023-03-01T03:33:22;0.20;99.90
38902;DHT22;24661;53.566;9.910;2023-03-01T03:35:49;0.30;99.90
38902;DHT22;24661;53.566;9.910;2023-03-01T03:38:17;0.30;99.90
38902;DHT22;24661;53.566;9.910;2023-03-01T03:40:50;0.50;99.90
38902;DHT22;24661;53.566;9.910;2023-03-01T03:43:18;0.50;99.90
38902;DHT22;24661;53.566;9.910;2023-03-01T03:45:45;0.60;99.90
38902;DHT22;24661;53.566;9.910;2023-03-01T03:48:11;1.90;99.90
38902;DHT22;24661;53.566;9.910;2023-03-01T03:50:38;0.70;99.90
38902;DHT22;24661;53.566;9.910;2023-03-01T03:53:07;0.70;99.90
38902;DHT22;24661;53.566;9.910;2023-03-01T03:55:33;0.80;99.90
38902;DHT22;24661;53.566;9.910;2023-03-01T03:58:01;0.80;99.90
38902;DHT22;24661;53.566;9.910;2023-03-01T04:00:27;0.80;99.90
38902;DHT22;24661;53.566;9.910;2023-03-01T04:02:53;0.80;99.90
38902;DHT22;24661;53.566;9.910;2023-03-01T04:05:23;0.80;99.90
38902;DHT22;24661;53.566;9.910;2023-03-01T04:07:48;0.80;99.90
38902;DHT22;24661;53.566;9.910;2023-03-01T04:10:17;0.80;99.90
38902;DHT22;24661;53.566;9.910;2023-03-01T04:12:43;0.90;99.90
38902;DHT22;24661;53.566;9.910;2023-03-01T04:15:10;0.90;99.90
38902;DHT22;24661;53.566;9.910;2023-03-01T04:17:43;1.00;99.90
38902;DHT22;24661;53.566;9.910;2023-03-01T04:20:12;1.00;99.90
38902;DHT22;24661;53.566;9.910;2023-03-01T04:22:39;1.10;99.90
38902;DHT22;24661;53.566;9.910;2023-03-01T04:25:06;1.10;99.90
38902;DHT22;24661;53.566;9.910;2023-03-01T04:27:33;1.10;99.90
38902;DHT22;24661;53.566;9.910;2023-03-01T04:29:59;1.10;99.90
38902;DHT22;24661;53.566;9.910;2023-03-01T04:32:24;1.20;99.90
38902;DHT22;24661;53.566;9.910;2023-03-01T04:34:50;1.20;99.90
38902;DHT22;24661;53.566;9.910;2023-03-01T04:37:16;1.20;99.90
38902;DHT22;24661;53.566;9.910;2023-03-01T04:39:41;1.20;99.90
38902;DHT22;24661;53.566;9.910;2023-03-01T04:42:15;1.30;99.90
38902;DHT22;24661;53.566;9.910;2023-03-01T04:44:40;1.30;99.90
38902;DHT22;24661;53.566;9.910;2023-03-01T04:47:06;1.30;99.90
38902;DHT22;24661;53.566;9.910;2023-03-01T04:49:32;1.30;99.90
38902;DHT22;24661;53.566;9.910;2023-03-01T04:51:57;1.40;99.90
38902;DHT22;24661;53.566;9.910;2023-03-01T04:54:31;1.40;99.90
38902;DHT22;24661;53.566;9.910;2023-03-01T04:56:57;1.30;99.90
38902;DHT22;24661;53.566;9.910;2023-03-01T04:59:22;1.40;99.90
38902;DHT22;24661;53.566;9.910;2023-03-01T05:01:49;1.40;99.90
38902;DHT22;24661;53.566;9.910;2023-03-01T05:04:15;1.50;99.90
38902;DHT22;24661;53.566;9.910;2023-03-01T05:06:41;1.50;99.90
38902;DHT22;24661;53.566;9.910;2023-03-01T05:09:06;1.40;99.90
38902;DHT22;24661;53.566;9.910;2023-03-01T05:11:32;1.50;99.90
38902;DHT22;24661;53.566;9.910;2023-03-01T05:14:02;1.50;99.90
38902;DHT22;24661;53.566;9.910;2023-03-01T05:16:28;1.50;99.90
38902;DHT22;24661;53.566;9.910;2023-03-01T05:18:53;1.60;99.90
38902;DHT22;24661;53.566;9.910;2023-03-01T05:21:21;1.50;99.90
38902;DHT22;24661;53.566;9.910;2023-03-01T05:23:47;1.50;99.90
38902;DHT22;24661;53.566;9.910;2023-03-01T05:26:13;1.50;99.90
38902;DHT22;24661;53.566;9.910;2023-03-01T05:28:39;1.40;99.90
38902;DHT22;24661;53.566;9.910;2023-03-01T05:31:05;1.40;99.90
38902;DHT22;24661;53.566;9.910;2023-03-01T05:33:38;1.50;99.90
38902;DHT22;24661;53.566;9.910;2023-03-01T05:36:07;1.50;99.90
38902;DHT22;24661;53.566;9.910;2023-03-01T05:38:35;1.50;99.90
38902;DHT22;24661;53.566;9.910;2023-03-01T05:41:00;1.60;99.90
38902;DHT22;24661;53.566;9.910;2023-03-01T05:43:29;1.60;99.90
38902;DHT22;24661;53.566;9.910;2023-03-01T05:45:57;1.60;99.90
38902;DHT22;24661;53.566;9.910;2023-03-01T05:48:23;1.70;99.90
38902;DHT22;24661;53.566;9.910;2023-03-01T05:50:48;1.70;99.90
38902;DHT22;24661;53.566;9.910;2023-03-01T05:53:16;1.80;99.90
38902;DHT22;24661;53.566;9.910;2023-03-01T05:55:43;1.60;99.90
38902;DHT22;24661;53.566;9.910;2023-03-01T05:58:13;1.60;99.90
38902;DHT22;24661;53.566;9.910;2023-03-01T06:00:40;1.70;99.90
38902;DHT22;24661;53.566;9.910;2023-03-01T06:03:06;1.70;99.90
38902;DHT22;24661;53.566;9.910;2023-03-01T06:05:31;1.80;99.90
38902;DHT22;24661;53.566;9.910;2023-03-01T06:08:01;1.80;99.90
38902;DHT22;24661;53.566;9.910;2023-03-01T06:10:26;1.80;99.90
38902;DHT22;24661;53.566;9.910;2023-03-01T06:12:53;1.80;99.90
38902;DHT22;24661;53.566;9.910;2023-03-01T06:15:19;1.90;99.90
38902;DHT22;24661;53.566;9.910;2023-03-01T06:17:46;0.80;99.90
38902;DHT22;24661;53.566;9.910;2023-03-01T06:20:16;1.90;99.90
38902;DHT22;24661;53.566;9.910;2023-03-01T06:22:42;1.90;99.90
38902;DHT22;24661;53.566;9.910;2023-03-01T06:25:09;1.90;99.90
38902;DHT22;24661;53.566;9.910;2023-03-01T06:27:36;1.90;99.90
38902;DHT22;24661;53.566;9.910;2023-03-01T06:30:03;1.90;99.90
38902;DHT22;24661;53.566;9.910;2023-03-01T06:32:28;1.90;99.90
38902;DHT22;24661;53.566;9.910;2023-03-01T06:34:55;1.90;99.90
38902;DHT22;24661;53.566;9.910;2023-03-01T06:37:21;1.90;99.90
38902;DHT22;24661;53.566;9.910;2023-03-01T06:39:46;1.90;99.90
38902;DHT22;24661;53.566;9.910;2023-03-01T06:42:12;2.00;99.90
38902;DHT22;24661;53.566;9.910;2023-03-01T06:44:38;2.00;99.90
38902;DHT22;24661;53.566;9.910;2023-03-01T06:47:05;2.00;99.90
38902;DHT22;24661;53.566;9.910;2023-03-01T06:49:30;1.90;99.90
38902;DHT22;24661;53.566;9.910;2023-03-01T06:51:56;1.90;99.90
38902;DHT22;24661;53.566;9.910;2023-03-01T06:54:22;2.00;99.90
38902;DHT22;24661;53.566;9.910;2023-03-01T06:56:49;2.00;99.90
38902;DHT22;24661;53.566;9.910;2023-03-01T06:59:16;2.00;99.90
38902;DHT22;24661;53.566;9.910;2023-03-01T07:01:42;2.00;99.90
38902;DHT22;24661;53.566;9.910;2023-03-01T07:04:09;2.00;99.90
38902;DHT22;24661;53.566;9.910;2023-03-01T07:06:35;2.00;99.90
38902;DHT22;24661;53.566;9.910;2023-03-01T07:09:00;2.10;99.90
38902;DHT22;24661;53.566;9.910;2023-03-01T07:11:26;2.10;99.90
38902;DHT22;24661;53.566;9.910;2023-03-01T07:13:52;2.20;99.90
38902;DHT22;24661;53.566;9.910;2023-03-01T07:16:17;2.30;99.90
38902;DHT22;24661;53.566;9.910;2023-03-01T07:18:43;2.30;99.90
38902;DHT22;24661;53.566;9.910;2023-03-01T07:21:11;2.30;99.90
38902;DHT22;24661;53.566;9.910;2023-03-01T07:23:37;2.30;99.90
38902;DHT22;24661;53.566;9.910;2023-03-01T07:26:03;2.30;99.90
38902;DHT22;24661;53.566;9.910;2023-03-01T07:28:29;2.30;99.90
38902;DHT22;24661;53.566;9.910;2023-03-01T07:31:01;2.40;99.90
38902;DHT22;24661;53.566;9.910;2023-03-01T07:33:26;2.50;99.90
38902;DHT22;24661;53.566;9.910;2023-03-01T07:35:57;2.50;99.90
38902;DHT22;24661;53.566;9.910;2023-03-01T07:38:23;2.50;99.90
38902;DHT22;24661;53.566;9.910;2023-03-01T07:40:49;2.60;99.90
38902;DHT22;24661;53.566;9.910;2023-03-01T07:43:14;2.70;99.90
38902;DHT22;24661;53.566;9.910;2023-03-01T07:45:40;2.70;99.90
38902;DHT22;24661;53.566;9.910;2023-03-01T07:48:05;2.80;99.90
38902;DHT22;24661;53.566;9.910;2023-03-01T07:50:31;2.80;99.90
38902;DHT22;24661;53.566;9.910;2023-03-01T07:52:57;2.80;99.90
38902;DHT22;24661;53.566;9.910;2023-03-01T07:55:22;2.80;99.90
38902;DHT22;24661;53.566;9.910;2023-03-01T07:57:48;2.80;99.90
38902;DHT22;24661;53.566;9.910;2023-03-01T08:00:14;2.80;99.90
38902;DHT22;24661;53.566;9.910;2023-03-01T08:02:39;2.80;99.90
38902;DHT22;24661;53.566;9.910;2023-03-01T08:05:07;2.80;99.90
38902;DHT22;24661;53.566;9.910;2023-03-01T08:07:34;2.80;99.90
38902;DHT22;24661;53.566;9.910;2023-03-01T08:09:59;2.90;99.90
38902;DHT22;24661;53.566;9.910;2023-03-01T08:12:25;3.00;99.90
38902;DHT22;24661;53.566;9.910;2023-03-01T08:14:52;3.00;99.90
38902;DHT22;24661;53.566;9.910;2023-03-01T08:17:18;3.10;99.90
38902;DHT22;24661;53.566;9.910;2023-03-01T08:19:44;3.10;99.90
38902;DHT22;24661;53.566;9.910;2023-03-01T08:22:10;3.20;99.90
38902;DHT22;24661;53.566;9.910;2023-03-01T08:24:36;3.20;99.90
38902;DHT22;24661;53.566;9.910;2023-03-01T08:27:01;3.30;99.90
38902;DHT22;24661;53.566;9.910;2023-03-01T08:29:30;3.40;99.90
38902;DHT22;24661;53.566;9.910;2023-03-01T08:31:56;3.50;99.90
38902;DHT22;24661;53.566;9.910;2023-03-01T08:34:22;3.70;99.90
38902;DHT22;24661;53.566;9.910;2023-03-01T08:36:48;3.70;99.90
38902;DHT22;24661;53.566;9.910;2023-03-01T08:39:16;3.80;99.90
38902;DHT22;24661;53.566;9.910;2023-03-01T08:41:42;3.80;99.90
38902;DHT22;24661;53.566;9.910;2023-03-01T08:44:10;3.80;99.90
38902;DHT22;24661;53.566;9.910;2023-03-01T08:46:38;3.90;99.90
38902;DHT22;24661;53.566;9.910;2023-03-01T08:49:05;3.90;99.90
38902;DHT22;24661;53.566;9.910;2023-03-01T08:51:32;4.00;99.90
38902;DHT22;24661;53.566;9.910;2023-03-01T08:54:06;4.00;99.90
38902;DHT22;24661;53.566;9.910;2023-03-01T08:56:33;4.20;99.90
38902;DHT22;24661;53.566;9.910;2023-03-01T08:58:59;4.20;99.90
38902;DHT22;24661;53.566;9.910;2023-03-01T09:01:24;4.10;99.90
38902;DHT22;24661;53.566;9.910;2023-03-01T09:03:50;4.10;99.90
38902;DHT22;24661;53.566;9.910;2023-03-01T09:06:16;4.20;99.90
38902;DHT22;24661;53.566;9.910;2023-03-01T09:08:44;4.20;99.90
38902;DHT22;24661;53.566;9.910;2023-03-01T09:11:13;4.30;99.90
38902;DHT22;24661;53.566;9.910;2023-03-01T09:13:39;4.40;99.90
38902;DHT22;24661;53.566;9.910;2023-03-01T09:16:06;4.40;99.90
38902;DHT22;24661;53.566;9.910;2023-03-01T09:18:33;4.50;99.90
38902;DHT22;24661;53.566;9.910;2023-03-01T09:21:08;4.60;99.90
38902;DHT22;24661;53.566;9.910;2023-03-01T09:23:39;4.70;99.90
38902;DHT22;24661;53.566;9.910;2023-03-01T09:26:13;4.70;99.90
38902;DHT22;24661;53.566;9.910;2023-03-01T09:28:41;4.80;99.90
38902;DHT22;24661;53.566;9.910;2023-03-01T09:31:07;4.90;99.90
38902;DHT22;24661;53.566;9.910;2023-03-01T09:33:34;5.00;99.90
38902;DHT22;24661;53.566;9.910;2023-03-01T09:36:02;5.00;99.90
38902;DHT22;24661;53.566;9.910;2023-03-01T09:38:29;5.00;99.90
38902;DHT22;24661;53.566;9.910;2023-03-01T09:40:54;5.10;99.90
38902;DHT22;24661;53.566;9.910;2023-03-01T09:46:03;5.10;99.90
38902;DHT22;24661;53.566;9.910;2023-03-01T09:48:37;5.30;99.90
38902;DHT22;24661;53.566;9.910;2023-03-01T09:51:12;5.30;99.90
38902;DHT22;24661;53.566;9.910;2023-03-01T09:53:38;5.30;99.90
38902;DHT22;24661;53.566;9.910;2023-03-01T09:59:03;5.40;99.90
38902;DHT22;24661;53.566;9.910;2023-03-01T10:01:38;5.20;99.90
38902;DHT22;24661;53.566;9.910;2023-03-01T10:04:28;5.10;99.90
38902;DHT22;24661;53.566;9.910;2023-03-01T10:09:38;5.20;99.90
38902;DHT22;24661;53.566;9.910;2023-03-01T10:12:16;5.20;99.90
38902;DHT22;24661;53.566;9.910;2023-03-01T10:17:37;5.00;99.90
38902;DHT22;24661;53.566;9.910;2023-03-01T10:20:45;4.90;99.90
38902;DHT22;24661;53.566;9.910;2023-03-01T10:23:13;4.90;99.90
38902;DHT22;24661;53.566;9.910;2023-03-01T10:26:02;4.90;99.90
38902;DHT22;24661;53.566;9.910;2023-03-01T10:28:42;5.00;99.90
38902;DHT22;24661;53.566;9.910;2023-03-01T10:31:22;5.00;99.90
38902;DHT22;24661;53.566;9.910;2023-03-01T10:33:53;5.20;99.90
38902;DHT22;24661;53.566;9.910;2023-03-01T10:36:21;5.30;99.90
38902;DHT22;24661;53.566;9.910;2023-03-01T10:38:56;5.30;99.90
38902;DHT22;24661;53.566;9.910;2023-03-01T10:41:23;5.30;99.90
38902;DHT22;24661;53.566;9.910;2023-03-01T10:43:54;5.40;99.90
38902;DHT22;24661;53.566;9.910;2023-03-01T10:46:34;5.50;99.90
38902;DHT22;24661;53.566;9.910;2023-03-01T10:49:21;5.50;99.90
38902;DHT22;24661;53.566;9.910;2023-03-01T10:51:49;5.40;99.90
38902;DHT22;24661;53.566;9.910;2023-03-01T10:54:52;5.40;99.90
38902;DHT22;24661;53.566;9.910;2023-03-01T10:57:38;5.40;99.90
38902;DHT22;24661;53.566;9.910;2023-03-01T11:00:25;5.50;99.90
38902;DHT22;24661;53.566;9.910;2023-03-01T11:03:04;6.50;99.90
38902;DHT22;24661;53.566;9.910;2023-03-01T11:05:35;5.30;99.90
38902;DHT22;24661;53.566;9.910;2023-03-01T11:08:02;5.30;99.90
38902;DHT22;24661;53.566;9.910;2023-03-01T11:10:31;5.30;99.90
38902;DHT22;24661;53.566;9.910;2023-03-01T11:13:18;5.50;99.90
38902;DHT22;24661;53.566;9.910;2023-03-01T11:16:06;5.40;99.90
38902;DHT22;24661;53.566;9.910;2023-03-01T11:18:33;5.40;99.90
38902;DHT22;24661;53.566;9.910;2023-03-01T11:21:00;5.40;99.90
38902;DHT22;24661;53.566;9.910;2023-03-01T11:23:28;5.40;99.90
38902;DHT22;24661;53.566;9.910;2023-03-01T11:25:59;5.50;99.90
38902;DHT22;24661;53.566;9.910;2023-03-01T11:28:27;5.50;99.90
38902;DHT22;24661;53.566;9.910;2023-03-01T11:31:03;5.50;99.90
38902;DHT22;24661;53.566;9.910;2023-03-01T11:38:48;5.80;99.90
38902;DHT22;24661;53.566;9.910;2023-03-01T11:41:25;5.80;99.90
38902;DHT22;24661;53.566;9.910;2023-03-01T11:44:04;5.90;99.90
38902;DHT22;24661;53.566;9.910;2023-03-01T12:06:56;6.60;99.90
38902;DHT22;24661;53.566;9.910;2023-03-01T12:09:51;7.70;99.90
38902;DHT22;24661;53.566;9.910;2023-03-01T12:20:58;7.00;99.90
38902;DHT22;24661;53.566;9.910;2023-03-01T12:26:35;7.10;99.90
38902;DHT22;24661;53.566;9.910;2023-03-01T12:37:52;7.50;99.90
38902;DHT22;24661;53.566;9.910;2023-03-01T12:46:44;8.90;99.90
38902;DHT22;24661;53.566;9.910;2023-03-01T12:48:53;7.60;99.90
38902;DHT22;24661;53.566;9.910;2023-03-01T12:51:24;7.70;99.90
38902;DHT22;24661;53.566;9.910;2023-03-01T12:53:55;7.70;99.90
38902;DHT22;24661;53.566;9.910;2023-03-01T12:56:34;7.90;99.90
38902;DHT22;24661;53.566;9.910;2023-03-01T12:59:11;7.80;99.90
38902;DHT22;24661;53.566;9.910;2023-03-01T13:10:42;7.90;99.90
38902;DHT22;24661;53.566;9.910;2023-03-01T13:15:36;8.10;99.90
38902;DHT22;24661;53.566;9.910;2023-03-01T13:26:17;7.90;99.90
38902;DHT22;24661;53.566;9.910;2023-03-01T13:38:58;7.90;99.90
38902;DHT22;24661;53.566;9.910;2023-03-01T13:41:49;8.00;99.90
38902;DHT22;24661;53.566;9.910;2023-03-01T13:44:33;8.00;99.90
38902;DHT22;24661;53.566;9.910;2023-03-01T13:50:15;7.80;99.90
38902;DHT22;24661;53.566;9.910;2023-03-01T13:52:54;7.70;99.90
38902;DHT22;24661;53.566;9.910;2023-03-01T13:57:59;7.90;99.90
38902;DHT22;24661;53.566;9.910;2023-03-01T14:00:37;7.90;99.90
38902;DHT22;24661;53.566;9.910;2023-03-01T14:03:19;8.00;99.90
38902;DHT22;24661;53.566;9.910;2023-03-01T14:06:05;8.40;99.90
38902;DHT22;24661;53.566;9.910;2023-03-01T14:08:33;12.40;99.90
38902;DHT22;24661;53.566;9.910;2023-03-01T14:11:13;13.70;99.90
38902;DHT22;24661;53.566;9.910;2023-03-01T14:16:48;16.50;99.90
38902;DHT22;24661;53.566;9.910;2023-03-01T14:19:24;18.40;99.90
38902;DHT22;24661;53.566;9.910;2023-03-01T14:22:20;18.70;99.90
38902;DHT22;24661;53.566;9.910;2023-03-01T14:24:55;19.30;99.90
38902;DHT22;24661;53.566;9.910;2023-03-01T14:27:41;19.30;99.90
38902;DHT22;24661;53.566;9.910;2023-03-01T14:30:31;19.80;98.60
38902;DHT22;24661;53.566;9.910;2023-03-01T14:33:00;20.70;98.90
38902;DHT22;24661;53.566;9.910;2023-03-01T14:35:28;21.00;95.70
38902;DHT22;24661;53.566;9.910;2023-03-01T14:37:54;20.40;99.40
38902;DHT22;24661;53.566;9.910;2023-03-01T14:40:35;20.60;96.60
38902;DHT22;24661;53.566;9.910;2023-03-01T14:43:08;17.50;96.10
38902;DHT22;24661;53.566;9.910;2023-03-01T14:45:35;14.60;99.90
38902;DHT22;24661;53.566;9.910;2023-03-01T14:48:03;13.00;99.90
38902;DHT22;24661;53.566;9.910;2023-03-01T14:50:32;11.70;99.90
38902;DHT22;24661;53.566;9.910;2023-03-01T14:53:05;11.10;99.90
38902;DHT22;24661;53.566;9.910;2023-03-01T14:55:36;10.60;99.90
38902;DHT22;24661;53.566;9.910;2023-03-01T14:58:05;10.00;99.90
38902;DHT22;24661;53.566;9.910;2023-03-01T15:00:33;9.60;99.90
38902;DHT22;24661;53.566;9.910;2023-03-01T15:03:13;9.20;99.90
38902;DHT22;24661;53.566;9.910;2023-03-01T15:05:42;8.70;99.90
38902;DHT22;24661;53.566;9.910;2023-03-01T15:08:20;8.60;99.90
38902;DHT22;24661;53.566;9.910;2023-03-01T15:11:05;8.30;99.90
38902;DHT22;24661;53.566;9.910;2023-03-01T15:13:33;8.10;99.90
38902;DHT22;24661;53.566;9.910;2023-03-01T15:16:11;8.00;99.90
38902;DHT22;24661;53.566;9.910;2023-03-01T15:18:47;8.00;99.90
38902;DHT22;24661;53.566;9.910;2023-03-01T15:21:26;7.90;99.90
38902;DHT22;24661;53.566;9.910;2023-03-01T15:26:42;7.60;99.90
38902;DHT22;24661;53.566;9.910;2023-03-01T15:29:20;7.60;99.90
38902;DHT22;24661;53.566;9.910;2023-03-01T15:32:01;7.50;99.90
38902;DHT22;24661;53.566;9.910;2023-03-01T15:34:35;7.40;99.90
38902;DHT22;24661;53.566;9.910;2023-03-01T15:37:04;7.40;99.90
38902;DHT22;24661;53.566;9.910;2023-03-01T15:39:33;7.20;99.90
38902;DHT22;24661;53.566;9.910;2023-03-01T15:47:54;7.00;99.90
38902;DHT22;24661;53.566;9.910;2023-03-01T15:50:32;6.90;99.90
38902;DHT22;24661;53.566;9.910;2023-03-01T15:53:05;6.80;99.90
38902;DHT22;24661;53.566;9.910;2023-03-01T15:55:32;6.80;99.90
38902;DHT22;24661;53.566;9.910;2023-03-01T15:58:15;6.70;99.90
38902;DHT22;24661;53.566;9.910;2023-03-01T16:00:52;6.60;99.90
38902;DHT22;24661;53.566;9.910;2023-03-01T16:03:23;6.50;99.90
38902;DHT22;24661;53.566;9.910;2023-03-01T16:05:49;6.50;99.90
38902;DHT22;24661;53.566;9.910;2023-03-01T16:08:21;6.40;99.90
38902;DHT22;24661;53.566;9.910;2023-03-01T16:10:47;6.40;99.90
38902;DHT22;24661;53.566;9.910;2023-03-01T16:13:16;6.30;99.90
38902;DHT22;24661;53.566;9.910;2023-03-01T16:15:43;6.30;99.90
38902;DHT22;24661;53.566;9.910;2023-03-01T16:18:09;6.20;99.90
38902;DHT22;24661;53.566;9.910;2023-03-01T16:20:40;6.10;99.90
38902;DHT22;24661;53.566;9.910;2023-03-01T16:23:07;6.10;99.90
38902;DHT22;24661;53.566;9.910;2023-03-01T16:25:34;6.00;99.90
38902;DHT22;24661;53.566;9.910;2023-03-01T16:28:00;6.00;99.90
38902;DHT22;24661;53.566;9.910;2023-03-01T16:30:30;5.90;99.90
38902;DHT22;24661;53.566;9.910;2023-03-01T16:32:55;5.80;99.90
38902;DHT22;24661;53.566;9.910;2023-03-01T16:35:21;5.80;99.90
38902;DHT22;24661;53.566;9.910;2023-03-01T16:37:48;5.70;99.90
38902;DHT22;24661;53.566;9.910;2023-03-01T16:40:26;5.70;99.90
38902;DHT22;24661;53.566;9.910;2023-03-01T16:42:53;5.60;99.90
38902;DHT22;24661;53.566;9.910;2023-03-01T16:45:20;5.60;99.90
38902;DHT22;24661;53.566;9.910;2023-03-01T16:47:46;5.50;99.90
38902;DHT22;24661;53.566;9.910;2023-03-01T16:50:12;5.40;99.90
38902;DHT22;24661;53.566;9.910;2023-03-01T16:52:38;5.40;99.90
38902;DHT22;24661;53.566;9.910;2023-03-01T16:55:07;5.40;99.90
38902;DHT22;24661;53.566;9.910;2023-03-01T16:57:36;5.30;99.90
38902;DHT22;24661;53.566;9.910;2023-03-01T17:00:02;5.30;99.90
38902;DHT22;24661;53.566;9.910;2023-03-01T17:02:30;5.10;99.90
38902;DHT22;24661;53.566;9.910;2023-03-01T17:04:57;6.10;99.90
38902;DHT22;24661;53.566;9.910;2023-03-01T17:07:23;5.10;99.90
38902;DHT22;24661;53.566;9.910;2023-03-01T17:09:48;5.00;99.90
38902;DHT22;24661;53.566;9.910;2023-03-01T17:12:15;4.90;99.90
38902;DHT22;24661;53.566;9.910;2023-03-01T17:14:41;4.90;99.90
38902;DHT22;24661;53.566;9.910;2023-03-01T17:17:08;4.80;99.90
38902;DHT22;24661;53.566;9.910;2023-03-01T17:19:35;4.80;99.90
38902;DHT22;24661;53.566;9.910;2023-03-01T17:22:05;4.70;99.90
38902;DHT22;24661;53.566;9.910;2023-03-01T17:24:35;4.80;99.90
38902;DHT22;24661;53.566;9.910;2023-03-01T17:27:01;4.60;99.90
38902;DHT22;24661;53.566;9.910;2023-03-01T17:29:27;4.60;99.90
38902;DHT22;24661;53.566;9.910;2023-03-01T17:31:54;4.60;99.90
38902;DHT22;24661;53.566;9.910;2023-03-01T17:34:21;4.50;99.90
38902;DHT22;24661;53.566;9.910;2023-03-01T17:36:47;4.50;99.90
38902;DHT22;24661;53.566;9.910;2023-03-01T17:39:15;4.40;99.90
38902;DHT22;24661;53.566;9.910;2023-03-01T17:41:42;4.40;99.90
38902;DHT22;24661;53.566;9.910;2023-03-01T17:44:07;4.40;99.90
38902;DHT22;24661;53.566;9.910;2023-03-01T17:46:33;4.30;99.90
38902;DHT22;24661;53.566;9.910;2023-03-01T17:49:00;4.30;99.90
38902;DHT22;24661;53.566;9.910;2023-03-01T17:51:26;4.30;99.90
38902;DHT22;24661;53.566;9.910;2023-03-01T17:53:52;4.10;99.90
38902;DHT22;24661;53.566;9.910;2023-03-01T17:56:18;4.20;99.90
38902;DHT22;24661;53.566;9.910;2023-03-01T17:58:46;4.10;99.90